Time;durP1;ratioP1;P1;durP2;ratioP2;P2;SDS_P1;SDS_P2;PMS_P1;PMS_P2;Temp;Humidity;BMP_temperature;BMP_pressure;BME280_temperature;BME280_humidity;BME280_pressure;Samples;Min_cycle;Max_cycle;Signal;HPM_P1;HPM_P2
2022/10/15 00:01:42;;;;;;;0.77;0.40;;;13.80;99.90;;;;;;5084188;28;20029;-72
2022/10/15 00:04:08;;;;;;;0.22;0.22;;;13.80;99.90;;;;;;5083880;28;20034;-72
2022/10/15 00:06:34;;;;;;;0.30;0.30;;;13.80;99.90;;;;;;5086689;28;20899;-72
2022/10/15 00:08:59;;;;;;;1.33;0.60;;;13.80;99.90;;;;;;5088264;28;20672;-72
2022/10/15 00:11:27;;;;;;;2.25;0.50;;;13.80;99.90;;;;;;5087566;28;20088;-72
2022/10/15 00:13:54;;;;;;;1.00;0.50;;;13.80;99.90;;;;;;5088409;28;20100;-72
2022/10/15 00:16:23;;;;;;;0.20;0.20;;;13.80;99.90;;;;;;5082282;28;20353;-73
2022/10/15 00:18:50;;;;;;;1.75;0.30;;;13.80;99.90;;;;;;5084804;28;20044;-72
2022/10/15 00:21:18;;;;;;;1.00;0.35;;;13.80;99.90;;;;;;5084360;28;20089;-73
2022/10/15 00:23:45;;;;;;;0.50;0.25;;;13.90;99.90;;;;;;5084253;28;20058;-72
2022/10/15 00:26:14;;;;;;;1.00;0.40;;;13.80;99.90;;;;;;5083392;28;20028;-75
2022/10/15 00:28:40;;;;;;;0.20;0.20;;;13.80;99.90;;;;;;5085895;28;20082;-72
2022/10/15 00:31:09;;;;;;;0.70;0.30;;;13.80;99.90;;;;;;5082826;28;20472;-72
2022/10/15 00:33:36;;;;;;;0.32;0.20;;;13.90;99.90;;;;;;5083699;28;20063;-72
2022/10/15 00:36:03;;;;;;;0.80;0.30;;;13.90;99.90;;;;;;5084426;28;20059;-73
2022/10/15 00:38:29;;;;;;;0.65;0.47;;;13.90;99.90;;;;;;5082052;28;20020;-72
2022/10/15 00:40:56;;;;;;;0.30;0.30;;;13.80;99.90;;;;;;5086309;28;20082;-72
2022/10/15 00:43:50;;;;;;;2.03;0.20;;;13.90;99.90;;;;;;5084983;28;20430;-71
2022/10/15 00:46:36;;;;;;;0.57;0.20;;;13.90;99.90;;;;;;5084804;28;20091;-71
2022/10/15 00:49:20;;;;;;;0.52;0.32;;;13.90;99.90;;;;;;5087826;28;20119;-71
2022/10/15 00:51:59;;;;;;;1.63;0.40;;;13.90;99.90;;;;;;5082795;28;20024;-71
2022/10/15 00:54:30;;;;;;;1.10;0.47;;;14.00;99.90;;;;;;5083002;28;20016;-71
2022/10/15 00:56:56;;;;;;;0.85;0.20;;;14.00;99.90;;;;;;5078978;28;20039;-71
2022/10/15 00:59:25;;;;;;;0.95;0.20;;;14.00;99.90;;;;;;5092380;28;20024;-71
2022/10/15 01:01:51;;;;;;;1.48;0.30;;;14.00;99.90;;;;;;5092139;28;20067;-71
2022/10/15 01:04:17;;;;;;;0.47;0.10;;;14.00;99.90;;;;;;5092250;28;20465;-71
2022/10/15 01:06:44;;;;;;;0.50;0.22;;;14.00;99.90;;;;;;5091516;28;20032;-70
2022/10/15 01:09:11;;;;;;;2.30;0.25;;;14.10;99.90;;;;;;5099843;28;20027;-71
2022/10/15 01:11:49;;;;;;;0.17;0.15;;;14.10;99.90;;;;;;5100292;28;20089;-71
2022/10/15 01:14:26;;;;;;;0.63;0.10;;;14.10;99.90;;;;;;5088689;28;20899;-73
2022/10/15 01:17:24;;;;;;;1.15;0.10;;;14.10;99.90;;;;;;5091607;28;20040;-71
2022/10/15 01:20:20;;;;;;;4.65;0.88;;;14.20;99.90;;;;;;5020084;28;20038;-70
2022/10/15 01:23:23;;;;;;;0.63;0.20;;;14.20;99.90;;;;;;5092695;28;20111;-71
2022/10/15 01:26:13;;;;;;;0.73;0.20;;;14.20;99.90;;;;;;5091714;28;20055;-71
2022/10/15 01:29:22;;;;;;;0.47;0.30;;;14.20;99.90;;;;;;5091665;28;20061;-71
2022/10/15 01:32:10;;;;;;;0.65;0.20;;;14.20;99.90;;;;;;5090051;28;20519;-71
2022/10/15 01:35:07;;;;;;;0.82;0.20;;;14.20;99.90;;;;;;5090567;28;20020;-71
2022/10/15 01:37:49;;;;;;;0.55;0.10;;;14.20;99.90;;;;;;5079147;28;20436;-71
2022/10/15 01:40:32;;;;;;;2.55;0.32;;;14.20;99.90;;;;;;5085131;28;20035;-73
2022/10/15 01:43:00;;;;;;;0.40;0.20;;;14.20;99.90;;;;;;5091671;28;20059;-72
2022/10/15 01:45:35;;;;;;;0.50;0.20;;;14.20;99.90;;;;;;5091235;28;20024;-72
2022/10/15 01:48:10;;;;;;;2.10;0.28;;;14.10;99.90;;;;;;5091731;28;20032;-72
2022/10/15 01:50:41;;;;;;;1.23;0.17;;;14.20;99.90;;;;;;5067631;28;20056;-73
2022/10/15 01:53:08;;;;;;;0.10;0.10;;;14.20;99.90;;;;;;5082387;28;20077;-72
2022/10/15 01:55:36;;;;;;;0.20;0.20;;;14.20;99.90;;;;;;5090927;28;20032;-71
2022/10/15 01:58:03;;;;;;;0.32;0.20;;;14.20;99.90;;;;;;5091665;28;20028;-72
2022/10/15 02:00:29;;;;;;;2.83;0.17;;;14.20;99.90;;;;;;5090036;28;20039;-72
2022/10/15 02:03:03;;;;;;;1.45;0.30;;;14.20;99.90;;;;;;5091804;28;20032;-71
2022/10/15 02:05:37;;;;;;;0.50;0.10;;;14.20;99.90;;;;;;5089535;28;20045;-73
2022/10/15 02:08:30;;;;;;;2.25;0.20;;;14.20;99.90;;;;;;5086490;28;20393;-72
2022/10/15 02:11:03;;;;;;;2.30;0.20;;;14.20;99.90;;;;;;5072602;28;20035;-70
2022/10/15 02:13:56;;;;;;;0.93;0.10;;;14.20;99.90;;;;;;5072957;28;20113;-71
2022/10/15 02:16:36;;;;;;;1.13;0.30;;;14.20;99.90;;;;;;5090487;28;20028;-70
2022/10/15 02:19:20;;;;;;;0.38;0.35;;;14.20;99.90;;;;;;5090943;28;20020;-71
2022/10/15 02:21:52;;;;;;;1.08;0.30;;;14.20;99.90;;;;;;5090920;28;20389;-71
2022/10/15 02:24:25;;;;;;;1.38;0.30;;;14.20;99.90;;;;;;5086821;28;20040;-70
2022/10/15 02:26:55;;;;;;;1.30;0.20;;;14.20;99.90;;;;;;5073015;28;20107;-71
2022/10/15 02:29:25;;;;;;;0.63;0.30;;;14.20;99.90;;;;;;5089769;28;20110;-71
2022/10/15 02:31:52;;;;;;;1.27;0.40;;;14.20;99.90;;;;;;5093468;28;20437;-72
2022/10/15 02:34:20;;;;;;;8.60;0.43;;;14.20;99.90;;;;;;5090530;28;20077;-71
2022/10/15 02:36:47;;;;;;;0.15;0.15;;;14.20;99.90;;;;;;5090619;28;21331;-71
2022/10/15 02:39:23;;;;;;;0.10;0.10;;;14.20;99.90;;;;;;5079265;28;20029;-72
2022/10/15 02:41:49;;;;;;;5.38;0.20;;;14.30;99.90;;;;;;5081562;28;20832;-71
2022/10/15 02:44:14;;;;;;;1.95;0.20;;;14.30;99.90;;;;;;5090864;28;20051;-74
2022/10/15 02:46:40;;;;;;;1.13;0.17;;;14.20;99.90;;;;;;5072812;28;20461;-71
2022/10/15 02:49:05;;;;;;;0.75;0.30;;;14.20;99.90;;;;;;5090155;28;20044;-71
2022/10/15 02:51:32;;;;;;;1.05;0.20;;;14.20;99.90;;;;;;5085000;28;20024;-71
2022/10/15 02:53:59;;;;;;;2.85;0.30;;;14.20;99.90;;;;;;5091342;28;20060;-70
2022/10/15 02:56:25;;;;;;;0.30;0.15;;;14.30;99.90;;;;;;5093054;28;20093;-70
2022/10/15 02:58:51;;;;;;;0.28;0.10;;;14.30;99.90;;;;;;5091102;28;20465;-71
2022/10/15 03:01:16;;;;;;;0.35;0.10;;;14.30;99.90;;;;;;5093996;28;20035;-70
2022/10/15 03:03:42;;;;;;;0.75;0.10;;;14.30;99.90;;;;;;5095304;28;20097;-71
2022/10/15 03:06:08;;;;;;;0.40;0.10;;;14.30;99.90;;;;;;5094708;28;20056;-71
2022/10/15 03:08:33;;;;;;;0.50;0.20;;;14.30;99.90;;;;;;5093708;28;20028;-71
2022/10/15 03:11:00;;;;;;;0.95;0.15;;;14.40;99.90;;;;;;5094780;28;20063;-71
2022/10/15 03:13:26;;;;;;;0.40;0.20;;;14.40;99.90;;;;;;5093907;28;20448;-71
2022/10/15 03:15:52;;;;;;;1.23;0.15;;;14.40;99.90;;;;;;5092006;28;20028;-71
2022/10/15 03:18:18;;;;;;;1.60;0.13;;;14.50;99.90;;;;;;5093587;28;20028;-70
2022/10/15 03:20:46;;;;;;;0.20;0.10;;;14.50;99.90;;;;;;5076114;28;20063;-70
2022/10/15 03:23:11;;;;;;;0.10;0.10;;;14.60;99.90;;;;;;5094847;28;20393;-72
2022/10/15 03:25:37;;;;;;;0.60;0.20;;;14.60;99.90;;;;;;5093592;28;20040;-70
2022/10/15 03:28:03;;;;;;;0.57;0.20;;;14.60;99.90;;;;;;5097363;28;20028;-70
2022/10/15 03:30:28;;;;;;;0.20;0.20;;;14.60;99.90;;;;;;5093768;28;20119;-71
2022/10/15 03:32:54;;;;;;;0.17;0.17;;;14.60;99.90;;;;;;5093595;28;20469;-71
2022/10/15 03:35:19;;;;;;;0.65;0.10;;;14.60;99.90;;;;;;5093318;28;20041;-71
2022/10/15 03:37:45;;;;;;;0.73;0.10;;;14.60;99.90;;;;;;5093628;28;20020;-70
2022/10/15 03:40:11;;;;;;;0.60;0.20;;;14.60;99.90;;;;;;5095757;28;20093;-72
2022/10/15 03:42:36;;;;;;;0.13;0.13;;;14.70;99.90;;;;;;5093729;28;20055;-71
2022/10/15 03:45:02;;;;;;;0.35;0.10;;;14.70;99.90;;;;;;5094669;28;20063;-71
2022/10/15 03:47:28;;;;;;;0.57;0.10;;;14.70;99.90;;;;;;5081410;28;20033;-71
2022/10/15 03:49:53;;;;;;;0.22;0.10;;;14.60;99.90;;;;;;5091149;28;20420;-70
2022/10/15 03:52:19;;;;;;;0.10;0.10;;;14.70;99.90;;;;;;5092049;28;20024;-70
2022/10/15 03:54:44;;;;;;;0.10;0.10;;;14.70;99.90;;;;;;5092516;28;20109;-70
2022/10/15 03:57:14;;;;;;;0.30;0.10;;;14.70;99.90;;;;;;5092843;28;20028;-71
2022/10/15 03:59:40;;;;;;;0.80;0.13;;;14.70;99.90;;;;;;5091965;28;20028;-70
2022/10/15 04:02:05;;;;;;;0.47;0.17;;;14.70;99.90;;;;;;5092323;28;20036;-71
2022/10/15 04:04:31;;;;;;;0.17;0.10;;;14.70;99.90;;;;;;5092018;28;20107;-71
2022/10/15 04:06:56;;;;;;;3.30;0.20;;;14.70;99.90;;;;;;5086773;28;20514;-72
2022/10/15 04:09:22;;;;;;;0.20;0.10;;;14.70;99.90;;;;;;5091475;28;20028;-72
2022/10/15 04:11:47;;;;;;;0.20;0.20;;;14.80;99.90;;;;;;5092604;28;20036;-72
2022/10/15 04:14:13;;;;;;;0.30;0.20;;;14.70;99.90;;;;;;5092477;28;20441;-74
2022/10/15 04:16:38;;;;;;;0.13;0.13;;;14.80;99.90;;;;;;5091827;28;20036;-72
2022/10/15 04:19:04;;;;;;;1.30;0.40;;;14.80;99.90;;;;;;5100824;28;20035;-72
2022/10/15 04:21:30;;;;;;;0.20;0.20;;;14.80;99.90;;;;;;5091252;28;20286;-72
2022/10/15 04:23:55;;;;;;;0.20;0.20;;;14.80;99.90;;;;;;5079290;28;20435;-72
2022/10/15 04:26:21;;;;;;;0.25;0.25;;;14.80;99.90;;;;;;5089795;28;20031;-72
2022/10/15 04:28:47;;;;;;;1.00;0.30;;;14.80;99.90;;;;;;5091909;28;20039;-72
2022/10/15 04:31:13;;;;;;;0.30;0.30;;;14.80;99.90;;;;;;5091511;28;20114;-73
2022/10/15 04:33:38;;;;;;;2.70;0.28;;;14.80;99.90;;;;;;5092482;28;20108;-71
2022/10/15 04:36:08;;;;;;;0.20;0.20;;;14.80;99.90;;;;;;5091448;28;20663;-71
2022/10/15 04:38:34;;;;;;;0.75;0.30;;;14.70;99.90;;;;;;5090431;28;20020;-71
2022/10/15 04:41:01;;;;;;;1.50;0.30;;;14.70;99.90;;;;;;5092381;28;20120;-70
2022/10/15 04:43:27;;;;;;;0.70;0.30;;;14.70;99.90;;;;;;5083766;28;20055;-71
2022/10/15 04:46:00;;;;;;;0.20;0.10;;;14.70;99.90;;;;;;5087698;28;20099;-70
2022/10/15 04:48:31;;;;;;;1.65;0.20;;;14.70;99.90;;;;;;5080725;28;143639;-70
2022/10/15 04:51:12;;;;;;;0.13;0.13;;;14.70;99.90;;;;;;5075839;28;20033;-71
2022/10/15 04:53:38;;;;;;;0.08;0.08;;;14.70;99.90;;;;;;5081995;28;20097;-71
2022/10/15 04:56:07;;;;;;;0.20;0.20;;;14.70;99.90;;;;;;5092372;28;20457;-71
2022/10/15 04:58:34;;;;;;;1.00;0.28;;;14.70;99.90;;;;;;5091775;28;20027;-70
2022/10/15 05:01:02;;;;;;;2.28;0.30;;;14.70;99.90;;;;;;5089157;28;20369;-70
2022/10/15 05:03:28;;;;;;;2.30;0.20;;;14.70;99.90;;;;;;5092102;28;20031;-70
2022/10/15 05:05:58;;;;;;;0.57;0.30;;;14.70;99.90;;;;;;5091864;28;20389;-70
2022/10/15 05:08:24;;;;;;;2.40;0.30;;;14.70;99.90;;;;;;5091699;28;20053;-70
2022/10/15 05:10:49;;;;;;;0.10;0.10;;;14.70;99.90;;;;;;5091884;28;20366;-71
2022/10/15 05:13:15;;;;;;;1.98;0.35;;;14.70;99.90;;;;;;5092349;28;20028;-71
2022/10/15 05:15:40;;;;;;;0.38;0.32;;;14.70;99.90;;;;;;5092183;28;20362;-71
2022/10/15 05:18:06;;;;;;;1.88;0.30;;;14.70;99.90;;;;;;5089355;28;20465;-71
2022/10/15 05:20:32;;;;;;;2.42;0.30;;;14.70;99.90;;;;;;5075418;28;20041;-71
2022/10/15 05:22:57;;;;;;;0.22;0.22;;;14.70;99.90;;;;;;5080164;28;20032;-70
2022/10/15 05:25:23;;;;;;;1.67;0.22;;;14.70;99.90;;;;;;5085092;28;20035;-72
2022/10/15 05:27:49;;;;;;;2.33;0.40;;;14.70;99.90;;;;;;5082781;28;20388;-71
2022/10/15 05:30:14;;;;;;;0.38;0.30;;;14.70;99.90;;;;;;5085333;28;20542;-72
2022/10/15 05:32:40;;;;;;;0.50;0.20;;;14.70;99.90;;;;;;5084766;28;20064;-73
2022/10/15 05:35:06;;;;;;;0.95;0.25;;;14.70;99.90;;;;;;5088552;28;20032;-72
2022/10/15 05:37:32;;;;;;;0.80;0.40;;;14.70;99.90;;;;;;5085142;28;20050;-71
2022/10/15 05:39:57;;;;;;;0.52;0.50;;;14.70;99.90;;;;;;5091398;28;20432;-70
2022/10/15 05:42:23;;;;;;;1.90;0.73;;;14.70;99.90;;;;;;5082736;28;20055;-70
2022/10/15 05:44:48;;;;;;;0.65;0.65;;;14.70;99.90;;;;;;5091464;28;20024;-70
2022/10/15 05:47:14;;;;;;;1.23;0.80;;;14.70;99.90;;;;;;5083301;28;20534;-73
2022/10/15 05:49:39;;;;;;;1.50;0.57;;;14.70;99.90;;;;;;5090985;28;20456;-71
2022/10/15 05:52:05;;;;;;;0.75;0.60;;;14.70;99.90;;;;;;5084518;28;20039;-71
2022/10/15 05:54:31;;;;;;;2.97;0.40;;;14.70;99.90;;;;;;5086342;28;20020;-71
2022/10/15 05:56:56;;;;;;;1.95;0.40;;;14.70;99.90;;;;;;5086156;28;20440;-70
2022/10/15 05:59:22;;;;;;;1.15;0.30;;;14.70;99.90;;;;;;5090606;28;20063;-71
2022/10/15 06:01:47;;;;;;;0.70;0.30;;;14.70;99.90;;;;;;5071994;28;20036;-71
2022/10/15 06:04:14;;;;;;;1.42;0.50;;;14.70;99.90;;;;;;5090449;28;20464;-73
2022/10/15 06:06:40;;;;;;;0.45;0.45;;;14.70;99.90;;;;;;5087716;28;20362;-72
2022/10/15 06:09:06;;;;;;;3.03;0.50;;;14.70;99.90;;;;;;5090906;28;20031;-71
2022/10/15 06:11:31;;;;;;;0.38;0.38;;;14.80;99.90;;;;;;5082468;28;20031;-71
2022/10/15 06:13:57;;;;;;;1.27;0.40;;;14.80;99.90;;;;;;5090929;28;20024;-72
2022/10/15 06:16:22;;;;;;;0.77;0.13;;;14.80;99.90;;;;;;5079887;28;20359;-71
2022/10/15 06:18:48;;;;;;;7.20;0.45;;;14.90;99.90;;;;;;5086790;28;20034;-71
2022/10/15 06:21:13;;;;;;;4.28;0.40;;;14.90;99.90;;;;;;5061416;28;20056;-73
2022/10/15 06:23:39;;;;;;;2.05;0.63;;;14.90;99.90;;;;;;5085999;28;20024;-71
2022/10/15 06:26:08;;;;;;;0.20;0.20;;;14.90;99.90;;;;;;5088531;28;20032;-71
2022/10/15 06:28:35;;;;;;;2.78;0.60;;;14.90;99.90;;;;;;5083309;28;20590;-73
2022/10/15 06:31:01;;;;;;;2.72;0.30;;;14.90;99.90;;;;;;5077443;28;20039;-72
2022/10/15 06:33:27;;;;;;;2.30;0.30;;;14.90;99.90;;;;;;5087264;28;20111;-71
2022/10/15 06:35:53;;;;;;;0.22;0.22;;;15.00;99.90;;;;;;5079167;28;20485;-72
2022/10/15 06:38:19;;;;;;;1.40;0.20;;;14.90;99.90;;;;;;5086780;28;20028;-71
2022/10/15 06:40:45;;;;;;;0.80;0.30;;;15.00;99.90;;;;;;5083580;28;20491;-72
2022/10/15 06:43:10;;;;;;;0.93;0.30;;;14.90;99.90;;;;;;5084812;28;20032;-70
2022/10/15 06:45:38;;;;;;;1.00;0.30;;;14.90;99.90;;;;;;5082624;28;20922;-71
2022/10/15 06:48:05;;;;;;;2.25;0.57;;;14.90;99.90;;;;;;5084122;28;20481;-71
2022/10/15 06:50:32;;;;;;;0.25;0.25;;;14.80;99.90;;;;;;5086996;28;20640;-71
2022/10/15 06:52:58;;;;;;;1.88;0.55;;;14.90;99.90;;;;;;5087186;28;20032;-72
2022/10/15 06:55:24;;;;;;;0.55;0.47;;;14.80;99.90;;;;;;5088212;28;20523;-71
2022/10/15 06:57:49;;;;;;;3.30;0.40;;;14.80;99.90;;;;;;5083928;28;20048;-70
2022/10/15 07:00:16;;;;;;;2.10;0.70;;;14.80;99.90;;;;;;5082515;28;20081;-72
2022/10/15 07:02:42;;;;;;;3.28;0.70;;;14.80;99.90;;;;;;5084086;28;20036;-72
2022/10/15 07:05:08;;;;;;;1.25;0.60;;;14.90;99.90;;;;;;5078406;28;20240;-74
2022/10/15 07:07:33;;;;;;;0.82;0.73;;;14.90;99.90;;;;;;5085778;28;20032;-73
2022/10/15 07:09:59;;;;;;;2.78;0.57;;;14.90;99.90;;;;;;5090196;28;20024;-71
2022/10/15 07:12:24;;;;;;;2.42;0.65;;;14.90;99.90;;;;;;5087583;28;20121;-72
2022/10/15 07:14:50;;;;;;;2.33;0.45;;;15.00;99.90;;;;;;5072355;28;20476;-72
2022/10/15 07:17:16;;;;;;;3.90;0.75;;;15.00;99.90;;;;;;5087766;28;20032;-71
2022/10/15 07:19:42;;;;;;;2.40;0.65;;;15.00;99.90;;;;;;5087310;28;20137;-72
2022/10/15 07:22:09;;;;;;;1.08;0.40;;;15.00;99.90;;;;;;5070748;28;20044;-73
2022/10/15 07:24:34;;;;;;;1.02;0.55;;;15.00;99.90;;;;;;5088873;28;20028;-75
2022/10/15 07:27:00;;;;;;;1.08;0.55;;;15.00;99.90;;;;;;5069873;28;20036;-77
2022/10/15 07:29:26;;;;;;;0.93;0.40;;;15.10;99.90;;;;;;5089462;28;20028;-76
2022/10/15 07:31:51;;;;;;;1.63;0.70;;;15.10;99.90;;;;;;5079352;28;20043;-73
2022/10/15 07:34:17;;;;;;;0.50;0.40;;;15.10;99.90;;;;;;5081608;28;20032;-76
2022/10/15 07:36:43;;;;;;;3.60;0.65;;;15.10;99.90;;;;;;5082027;28;20115;-74
2022/10/15 07:39:09;;;;;;;1.30;0.45;;;15.20;99.90;;;;;;5066316;28;20110;-73
2022/10/15 07:41:35;;;;;;;1.38;0.50;;;15.20;99.90;;;;;;5085178;28;20035;-76
2022/10/15 07:44:01;;;;;;;2.47;0.60;;;15.30;99.90;;;;;;5085753;28;20081;-74
2022/10/15 07:46:26;;;;;;;5.22;1.23;;;15.40;99.90;;;;;;5088012;28;20036;-76
2022/10/15 07:48:52;;;;;;;2.63;1.20;;;15.50;99.90;;;;;;5087404;28;20044;-73
2022/10/15 07:51:18;;;;;;;5.65;0.88;;;15.50;99.90;;;;;;5086904;28;20526;-75
2022/10/15 07:53:43;;;;;;;4.20;0.80;;;15.60;99.90;;;;;;5085059;28;20377;-80
2022/10/15 07:56:10;;;;;;;1.10;0.60;;;15.60;99.90;;;;;;5090294;28;20024;-80
2022/10/15 07:58:37;;;;;;;6.50;0.73;;;15.60;99.90;;;;;;5084670;28;20028;-82
2022/10/15 08:01:07;;;;;;;1.95;0.47;;;15.50;99.90;;;;;;5087115;28;20246;-82
2022/10/15 08:03:33;;;;;;;1.75;0.60;;;15.50;99.90;;;;;;5091139;28;20012;-79
2022/10/15 08:06:00;;;;;;;1.92;0.60;;;15.50;99.90;;;;;;5088979;28;20040;-72
2022/10/15 08:08:26;;;;;;;0.70;0.52;;;15.50;99.90;;;;;;5088756;28;20039;-74
2022/10/15 08:10:51;;;;;;;1.52;0.60;;;15.40;99.90;;;;;;5067700;28;20025;-73
2022/10/15 08:13:17;;;;;;;2.40;0.60;;;15.40;99.90;;;;;;5086045;28;20117;-73
2022/10/15 08:15:42;;;;;;;2.42;0.70;;;15.30;99.90;;;;;;5085841;28;20377;-74
2022/10/15 08:18:11;;;;;;;2.95;0.60;;;15.30;99.90;;;;;;5088613;28;20036;-75
2022/10/15 08:20:37;;;;;;;0.55;0.30;;;15.20;99.90;;;;;;5082917;28;20141;-76
2022/10/15 08:23:03;;;;;;;1.08;0.40;;;15.20;99.90;;;;;;5084500;28;20423;-75
2022/10/15 08:25:30;;;;;;;1.05;0.60;;;15.20;99.90;;;;;;5084441;28;20082;-73
2022/10/15 08:27:56;;;;;;;2.67;1.85;;;15.20;99.90;;;;;;5084752;28;20028;-75
2022/10/15 08:30:22;;;;;;;1.17;0.82;;;15.30;99.90;;;;;;5083368;28;20040;-74
2022/10/15 08:32:47;;;;;;;2.25;0.60;;;15.40;99.90;;;;;;5082742;28;20032;-76
2022/10/15 08:35:13;;;;;;;0.90;0.70;;;15.40;99.90;;;;;;5086415;28;20028;-75
2022/10/15 08:37:39;;;;;;;3.08;0.88;;;15.50;99.90;;;;;;5062905;28;20024;-74
2022/10/15 08:40:05;;;;;;;2.55;0.80;;;15.70;99.90;;;;;;5086543;28;20678;-79
2022/10/15 08:42:43;;;;;;;0.65;0.40;;;15.80;99.90;;;;;;5086110;28;20028;-74
2022/10/15 08:45:21;;;;;;;1.02;0.50;;;16.00;99.90;;;;;;5091775;28;20424;-77
2022/10/15 08:48:06;;;;;;;2.92;0.60;;;16.10;99.90;;;;;;5087820;28;20060;-83
2022/10/15 08:50:41;;;;;;;2.05;0.65;;;16.10;99.90;;;;;;5082092;28;20798;-75
2022/10/15 08:53:14;;;;;;;0.57;0.43;;;16.20;99.90;;;;;;5086243;28;20048;-86
2022/10/15 08:55:44;;;;;;;2.10;0.30;;;16.20;99.90;;;;;;5087922;28;21253;-80
2022/10/15 08:58:29;;;;;;;0.50;0.50;;;16.20;99.90;;;;;;5074375;28;20024;-74
2022/10/15 09:01:16;;;;;;;1.20;0.70;;;16.10;99.90;;;;;;5090594;28;20074;-76
2022/10/15 09:03:45;;;;;;;2.28;1.88;;;16.20;99.90;;;;;;5091480;28;20024;-73
2022/10/15 09:06:37;;;;;;;3.42;0.65;;;16.10;99.90;;;;;;5089507;28;20032;-75
2022/10/15 09:09:34;;;;;;;0.85;0.52;;;16.20;99.90;;;;;;5087503;28;20040;-75
2022/10/15 09:12:20;;;;;;;0.90;0.63;;;16.20;99.90;;;;;;5066741;28;20044;-75
2022/10/15 09:14:47;;;;;;;2.22;0.40;;;16.20;99.90;;;;;;5080866;28;20016;-75
2022/10/15 09:17:21;;;;;;;0.50;0.50;;;16.20;99.90;;;;;;5078932;28;20496;-79
2022/10/15 09:19:51;;;;;;;1.63;0.52;;;16.30;99.90;;;;;;5088812;28;20116;-73
2022/10/15 09:22:20;;;;;;;0.20;0.20;;;16.40;99.90;;;;;;5078510;28;20032;-77
2022/10/15 09:24:46;;;;;;;0.65;0.50;;;16.40;99.90;;;;;;5090826;28;20035;-78
2022/10/15 09:27:18;;;;;;;1.75;0.50;;;16.40;99.90;;;;;;5072494;28;20025;-78
2022/10/15 09:30:02;;;;;;;2.28;0.30;;;16.50;99.90;;;;;;5087412;28;20020;-76
2022/10/15 09:32:36;;;;;;;0.40;0.40;;;16.50;99.90;;;;;;5079812;28;20073;-76
2022/10/15 09:35:17;;;;;;;1.00;0.52;;;16.60;99.90;;;;;;5085622;28;20032;-79
2022/10/15 09:37:48;;;;;;;0.88;0.50;;;16.70;99.90;;;;;;5087324;28;20373;-73
2022/10/15 09:40:22;;;;;;;2.95;0.40;;;16.70;99.90;;;;;;5088536;28;20081;-73
2022/10/15 09:42:50;;;;;;;0.85;0.60;;;16.70;99.90;;;;;;5084399;28;20035;-73
2022/10/15 09:45:17;;;;;;;0.60;0.50;;;16.80;99.90;;;;;;5082900;28;20020;-74
2022/10/15 09:47:43;;;;;;;0.50;0.43;;;16.90;99.90;;;;;;5078645;28;20093;-74
2022/10/15 09:50:12;;;;;;;0.75;0.47;;;17.00;99.90;;;;;;5083280;28;20488;-72
2022/10/15 09:52:49;;;;;;;0.52;0.43;;;17.20;99.90;;;;;;5085937;28;20027;-72
2022/10/15 09:55:49;;;;;;;1.25;0.38;;;17.30;99.90;;;;;;5089490;28;20028;-73
2022/10/15 09:58:37;;;;;;;2.43;0.30;;;17.50;99.90;;;;;;5083994;28;20020;-72
2022/10/15 10:01:16;;;;;;;1.20;0.47;;;17.70;99.90;;;;;;5084279;28;20564;-72
2022/10/15 10:03:41;;;;;;;0.50;0.40;;;17.90;99.90;;;;;;5081896;28;20089;-73
2022/10/15 10:06:10;;;;;;;0.73;0.70;;;18.00;99.90;;;;;;5080590;28;20423;-73
2022/10/15 10:08:54;;;;;;;0.88;0.20;;;18.20;99.90;;;;;;5086092;28;20032;-72
2022/10/15 10:11:22;;;;;;;0.80;0.35;;;18.50;99.90;;;;;;5082397;28;20123;-73
2022/10/15 10:13:47;;;;;;;0.30;0.30;;;18.80;99.90;;;;;;5083049;28;20036;-73
2022/10/15 10:16:15;;;;;;;1.90;0.40;;;18.90;99.90;;;;;;5081245;28;20024;-73
2022/10/15 10:18:49;;;;;;;0.40;0.40;;;19.00;99.90;;;;;;5080932;28;20020;-72
2022/10/15 10:21:25;;;;;;;2.42;0.38;;;19.10;99.90;;;;;;5080887;28;20029;-72
2022/10/15 10:23:51;;;;;;;0.98;0.40;;;19.30;99.90;;;;;;5080128;28;20362;-73
2022/10/15 10:26:17;;;;;;;2.33;0.80;;;19.50;99.90;;;;;;5080506;28;20031;-72
2022/10/15 10:28:54;;;;;;;0.75;0.40;;;19.50;99.90;;;;;;5084100;28;20453;-72
2022/10/15 10:31:41;;;;;;;0.50;0.35;;;19.60;99.90;;;;;;5080795;28;20513;-73
2022/10/15 10:34:15;;;;;;;2.05;0.60;;;19.70;99.90;;;;;;5085174;28;20035;-72
2022/10/15 10:36:40;;;;;;;1.15;0.50;;;19.90;99.90;;;;;;5084807;28;20031;-71
2022/10/15 10:39:09;;;;;;;2.65;1.08;;;19.90;99.90;;;;;;5083844;28;20024;-70
2022/10/15 10:41:49;;;;;;;1.38;0.80;;;19.90;99.90;;;;;;5080121;28;20029;-71
2022/10/15 10:44:32;;;;;;;1.55;0.60;;;20.00;99.90;;;;;;5077511;28;20029;-76
2022/10/15 10:47:06;;;;;;;1.95;0.50;;;20.00;99.90;;;;;;5085175;28;20119;-76
2022/10/15 10:49:36;;;;;;;1.20;0.65;;;20.00;99.90;;;;;;5081254;28;20044;-75
2022/10/15 10:52:02;;;;;;;1.30;0.40;;;20.20;99.90;;;;;;5086141;28;20492;-82
2022/10/15 10:54:29;;;;;;;2.65;0.55;;;20.30;99.90;;;;;;5084241;28;20051;-79
2022/10/15 10:56:57;;;;;;;1.52;0.52;;;20.40;99.90;;;;;;5065319;28;20032;-89
2022/10/15 10:59:26;;;;;;;4.28;0.95;;;20.60;99.90;;;;;;5063709;28;20031;-86
2022/10/15 11:01:52;;;;;;;4.00;0.60;;;20.70;99.90;;;;;;5069198;28;20033;-86
2022/10/15 11:04:29;;;;;;;1.23;0.52;;;20.60;99.90;;;;;;5084270;28;20040;-85
2022/10/15 11:07:36;;;;;;;1.92;0.70;;;20.70;99.90;;;;;;5084482;28;20021;-81
2022/10/15 11:10:13;;;;;;;0.77;0.63;;;20.80;99.90;;;;;;5050179;28;20081;-81
2022/10/15 11:12:53;;;;;;;2.83;0.50;;;20.90;99.90;;;;;;5080124;28;20051;-83
2022/10/15 11:15:41;;;;;;;2.30;0.60;;;21.00;99.90;;;;;;5084585;28;20445;-83
2022/10/15 11:18:18;;;;;;;1.73;0.93;;;21.00;99.90;;;;;;5092486;28;20388;-87
2022/10/15 11:21:02;;;;;;;2.20;0.70;;;21.00;99.90;;;;;;5084521;28;20439;-85
2022/10/15 11:23:56;;;;;;;1.75;0.70;;;21.00;99.90;;;;;;5094123;28;20080;-85
2022/10/15 11:26:47;;;;;;;0.98;0.50;;;20.90;99.90;;;;;;5076027;28;20389;-82
2022/10/15 11:29:26;;;;;;;1.98;0.60;;;20.80;99.90;;;;;;5092152;28;20067;-77
2022/10/15 11:32:18;;;;;;;6.03;1.00;;;20.70;99.90;;;;;;5081513;28;20032;-79
2022/10/15 11:34:54;;;;;;;1.45;0.75;;;20.50;99.90;;;;;;5088580;28;20073;-77
2022/10/15 11:37:32;;;;;;;2.28;0.60;;;20.40;99.90;;;;;;5080270;28;20529;-81
2022/10/15 11:40:25;;;;;;;3.28;0.65;;;20.40;99.90;;;;;;5072742;28;20080;-79
2022/10/15 11:42:55;;;;;;;2.35;0.52;;;20.20;99.90;;;;;;5093529;28;20086;-76
2022/10/15 11:45:29;;;;;;;1.13;0.47;;;20.20;99.90;;;;;;5091327;28;20035;-75
2022/10/15 11:48:14;;;;;;;5.88;0.80;;;20.20;99.90;;;;;;5087685;28;20052;-80
2022/10/15 11:50:43;;;;;;;1.75;0.60;;;20.30;99.90;;;;;;5094555;28;20036;-90
2022/10/15 11:53:30;;;;;;;6.40;0.82;;;20.40;99.90;;;;;;5089928;28;20056;-84
2022/10/15 11:56:04;;;;;;;1.08;0.50;;;20.30;99.90;;;;;;5077854;28;20028;-80
2022/10/15 11:58:39;;;;;;;1.23;0.60;;;20.40;99.90;;;;;;5089089;28;20107;-79
2022/10/15 12:01:11;;;;;;;4.53;0.40;;;20.40;99.90;;;;;;5089622;28;20525;-80
2022/10/15 12:04:01;;;;;;;0.50;0.40;;;20.60;99.90;;;;;;5092649;28;20013;-79
2022/10/15 12:06:33;;;;;;;0.63;0.50;;;20.90;99.90;;;;;;5080322;28;20028;-81
2022/10/15 12:08:59;;;;;;;3.13;0.70;;;21.40;99.90;;;;;;5080169;28;20052;-82
2022/10/15 12:11:33;;;;;;;0.68;0.40;;;21.60;99.90;;;;;;5086675;28;20482;-86
2022/10/15 12:14:29;;;;;;;4.50;0.45;;;21.50;99.90;;;;;;5085134;28;20024;-89
2022/10/15 12:17:15;;;;;;;1.75;0.43;;;21.40;99.90;;;;;;5064753;28;20021;-82
2022/10/15 12:19:53;;;;;;;1.30;0.68;;;21.30;99.90;;;;;;5084286;28;20036;-83
2022/10/15 12:22:33;;;;;;;1.52;0.77;;;21.10;99.90;;;;;;5067618;28;20032;-85
2022/10/15 12:24:58;;;;;;;2.93;0.63;;;21.00;99.90;;;;;;5084921;28;20163;-88
2022/10/15 12:27:33;;;;;;;1.45;1.13;;;20.80;99.90;;;;;;5086094;28;20428;-84
2022/10/15 12:29:58;;;;;;;3.72;1.20;;;20.70;99.90;;;;;;5088362;28;20389;-82
2022/10/15 12:32:35;;;;;;;1.77;0.75;;;20.50;99.90;;;;;;5089261;28;20036;-84
2022/10/15 12:35:04;;;;;;;2.13;0.60;;;20.30;99.90;;;;;;5088765;28;20035;-83
2022/10/15 12:37:34;;;;;;;2.47;0.70;;;20.20;99.90;;;;;;5086174;28;20044;-83
2022/10/15 12:40:22;;;;;;;0.50;0.40;;;20.10;99.90;;;;;;5091120;28;20028;-82
2022/10/15 12:43:00;;;;;;;1.48;0.70;;;20.00;99.90;;;;;;5086311;28;20115;-72
2022/10/15 12:45:50;;;;;;;0.50;0.40;;;19.90;99.90;;;;;;5085953;28;20039;-84
2022/10/15 12:48:35;;;;;;;4.35;0.77;;;19.80;99.90;;;;;;5093148;28;20044;-75
2022/10/15 12:51:34;;;;;;;4.63;0.82;;;19.70;99.90;;;;;;5094566;28;20037;-83
2022/10/15 12:54:01;;;;;;;2.30;0.47;;;19.60;99.90;;;;;;5050195;28;20065;-83
2022/10/15 12:56:40;;;;;;;2.28;0.45;;;19.50;99.90;;;;;;5100801;28;20024;-78
2022/10/15 12:59:30;;;;;;;1.80;0.70;;;19.40;99.90;;;;;;5116999;28;20026;-83
2022/10/15 13:01:56;;;;;;;1.42;0.60;;;19.30;99.90;;;;;;5098228;28;20032;-80
2022/10/15 13:04:22;;;;;;;0.95;0.47;;;19.20;99.90;;;;;;5093444;28;20028;-81
2022/10/15 13:06:48;;;;;;;4.63;1.35;;;19.10;99.90;;;;;;5093280;28;20118;-80
2022/10/15 13:09:25;;;;;;;1.23;0.70;;;19.00;99.90;;;;;;5074632;28;20103;-80